»·PEaware :: ASA625 KSFO-KRNO

ASA625 :: KSFO-KRNO

FLIGHT INFORMATION

Flight Status: Arrived
Operator:
Alaska Airlines
More flights by this operator :: More flights under this callsign
Pilot: Pratham R. (19019)
Aircraft: AIRBUS A320
(A320)
More flights by this aircraft type
Origin: KSFO San Francisco Intl
United States
Destination: KRNO Reno/Tahoe Intl
United States
More flights between these airports :: More routes between these airports
Route: +TRUKN2 ORRCA TARVR SPOON
File this flight plan on PilotEdge
Remarks: RMK / SIMBRIEF
Altitude:
(Current/Filed)
27,000ft
Speed:
(Current/Filed)
433kts
Departed: 20-Jun-20 08:20 PM
Arrived: 20-Jun-20 09:11 PM
Distance/Time
Traveled:
166nm/0:51
Distance/Time
To Go:
Arrived

Flight Plot

Page will automatically refresh every two minutes.

Flight plan parsing failed; only flown route is shown


Map Options




Map Legend


Flown Route
Filed Route
Departure Airport
Arrival Airport
Navaid (VOR, NDB)
Fix

Horizontal Profiles

Position Reports

Time Latitude Longitude Heading Altitude Ground
Speed
20-Jun-20 19:45 37.615107 -122.381870 263 17ft 0kts
20-Jun-20 19:46 37.615107 -122.381870 263 17ft 0kts
20-Jun-20 19:47 37.615107 -122.381870 263 17ft 0kts
20-Jun-20 19:48 37.615107 -122.381870 263 17ft 0kts
20-Jun-20 19:49 37.615107 -122.381870 263 17ft 0kts
20-Jun-20 19:50 37.615107 -122.381870 263 17ft 0kts
20-Jun-20 19:51 37.615107 -122.381870 263 17ft 0kts
20-Jun-20 19:52 37.615107 -122.381870 263 17ft 0kts
20-Jun-20 19:53 37.615107 -122.381870 263 17ft 0kts
20-Jun-20 19:54 37.615107 -122.381870 263 17ft 0kts
20-Jun-20 19:55 37.615107 -122.381870 263 17ft 0kts
20-Jun-20 19:56 37.615107 -122.381870 263 17ft 0kts
20-Jun-20 19:57 37.615107 -122.381870 263 17ft 0kts
20-Jun-20 19:58 37.615107 -122.381870 263 17ft 0kts
20-Jun-20 19:59 37.615107 -122.381870 263 17ft 0kts
20-Jun-20 20:00 37.615107 -122.381870 263 17ft 0kts
20-Jun-20 20:01 37.615107 -122.381870 263 17ft 0kts
20-Jun-20 20:02 37.615107 -122.381870 263 17ft 0kts
20-Jun-20 20:03 37.615107 -122.381870 263 17ft 0kts
20-Jun-20 20:04 37.615107 -122.381870 263 17ft 0kts
20-Jun-20 20:05 37.615107 -122.381870 263 17ft 0kts
20-Jun-20 20:06 37.615107 -122.381870 263 17ft 0kts
20-Jun-20 20:07 37.615107 -122.381869 263 17ft 0kts
20-Jun-20 20:08 37.615149 -122.381524 240 17ft 2kts
20-Jun-20 20:09 37.615636 -122.381470 125 18ft 0kts
20-Jun-20 20:10 37.615673 -122.381552 121 18ft 0kts
20-Jun-20 20:11 37.615673 -122.381552 120 18ft 0kts
20-Jun-20 20:12 37.615673 -122.381551 121 18ft 0kts
20-Jun-20 20:13 37.615673 -122.381551 121 18ft 0kts
20-Jun-20 20:14 37.615466 -122.381113 121 17ft 5kts
20-Jun-20 20:15 37.613296 -122.381839 207 17ft 8kts
20-Jun-20 20:17 37.610987 -122.383401 207 18ft 9kts
20-Jun-20 20:18 37.608747 -122.383870 188 18ft 2kts
20-Jun-20 20:19 37.608424 -122.382533 28 18ft 7kts
20-Jun-20 20:20 37.630806 -122.367131 26 909ft 178kts
20-Jun-20 20:21 37.667447 -122.309204 52 3906ft 257kts
20-Jun-20 20:22 37.710061 -122.230099 55 7633ft 288kts
20-Jun-20 20:23 37.771130 -122.166341 34 11015ft 313kts
20-Jun-20 20:24 37.848732 -122.095962 34 13286ft 364kts
20-Jun-20 20:25 37.931799 -122.020650 33 16090ft 380kts
20-Jun-20 20:26 38.019250 -121.941142 33 18603ft 391kts
20-Jun-20 20:27 38.103249 -121.864532 33 20301ft 403kts
20-Jun-20 20:28 38.192483 -121.782876 33 22369ft 414kts
20-Jun-20 20:29 38.282462 -121.700286 33 24194ft 425kts
20-Jun-20 20:30 38.377945 -121.612358 33 25897ft 435kts
20-Jun-20 20:31 38.469706 -121.518653 41 26950ft 434kts
20-Jun-20 20:31 38.538529 -121.430811 41 26957ft 436kts
20-Jun-20 20:33 38.631821 -121.311490 42 26950ft 437kts
20-Jun-20 20:34 38.714647 -121.205171 42 26951ft 437kts
20-Jun-20 20:34 38.779604 -121.121521 42 26998ft 439kts
20-Jun-20 20:36 38.871154 -120.986296 66 27013ft 455kts
20-Jun-20 20:36 38.879509 -120.864690 93 27103ft 461kts
20-Jun-20 20:37 38.865239 -120.716054 92 26987ft 460kts
20-Jun-20 20:39 38.857266 -120.535532 93 26807ft 433kts
20-Jun-20 20:39 38.850901 -120.417126 93 25234ft 423kts
20-Jun-20 20:40 38.842889 -120.264897 95 23225ft 408kts
20-Jun-20 20:41 38.837055 -120.155759 95 21708ft 399kts
20-Jun-20 20:42 38.829633 -120.020171 95 19668ft 390kts
20-Jun-20 20:43 38.821538 -119.874727 95 16986ft 369kts
20-Jun-20 20:44 38.864159 -119.771954 10 15418ft 351kts
20-Jun-20 20:45 38.958751 -119.770340 356 16082ft 343kts
20-Jun-20 20:46 39.053791 -119.770714 355 16836ft 340kts
20-Jun-20 20:47 39.144853 -119.771534 356 16497ft 340kts
20-Jun-20 20:48 39.200124 -119.690067 102 15065ft 349kts
20-Jun-20 20:49 39.133373 -119.615550 163 13326ft 326kts
20-Jun-20 20:50 39.048899 -119.577830 175 11571ft 316kts
20-Jun-20 20:51 38.984035 -119.632323 253 11037ft 299kts
20-Jun-20 20:52 39.018087 -119.720509 332 11038ft 311kts
20-Jun-20 20:53 39.097276 -119.764801 330 11034ft 309kts
20-Jun-20 20:54 39.180824 -119.771555 0 10702ft 315kts
20-Jun-20 20:55 39.265448 -119.768327 359 10221ft 275kts
20-Jun-20 20:56 39.336169 -119.767428 356 9743ft 238kts
20-Jun-20 20:57 39.399343 -119.751239 51 9989ft 251kts
20-Jun-20 20:58 39.380501 -119.664510 143 10008ft 283kts
20-Jun-20 20:59 39.311230 -119.624337 174 10022ft 273kts
20-Jun-20 21:00 39.235731 -119.610335 173 10033ft 274kts
20-Jun-20 21:01 39.163516 -119.617372 228 10039ft 260kts
20-Jun-20 21:02 39.170538 -119.694844 296 9169ft 227kts
20-Jun-20 21:03 39.200195 -119.759498 316 9042ft 203kts
20-Jun-20 21:04 39.256563 -119.767819 357 9028ft 209kts
20-Jun-20 21:05 39.316225 -119.766232 354 7818ft 214kts
20-Jun-20 21:06 39.367786 -119.766481 353 6929ft 172kts
20-Jun-20 21:07 39.412634 -119.766842 352 5842ft 148kts
20-Jun-20 21:08 39.452508 -119.766743 352 5097ft 143kts
20-Jun-20 21:09 39.492162 -119.766769 353 4425ft 137kts
20-Jun-20 21:10 39.509187 -119.766942 344 4424ft 15kts
20-Jun-20 21:11 39.510901 -119.769606 282 4424ft 12kts
20-Jun-20 21:12 39.509814 -119.771510 178 4424ft 13kts
20-Jun-20 21:13 39.505807 -119.771520 180 4424ft 14kts
20-Jun-20 21:14 39.503412 -119.772487 186 4424ft 4kts
20-Jun-20 21:15 39.503119 -119.772494 180 4424ft 0kts
20-Jun-20 21:16 39.503119 -119.772494 180 4424ft 0kts
20-Jun-20 21:17 39.503119 -119.772494 180 4424ft 0kts
20-Jun-20 21:18 39.503119 -119.772494 180 4424ft 0kts
20-Jun-20 21:19 39.503119 -119.772494 180 4424ft 0kts
20-Jun-20 21:20 39.503119 -119.772494 180 4424ft 0kts
20-Jun-20 21:21 39.503119 -119.772494 180 4424ft 0kts
20-Jun-20 21:22 39.503119 -119.772494 180 4424ft 0kts
20-Jun-20 21:23 39.503119 -119.772494 180 4424ft 0kts
20-Jun-20 21:24 39.503119 -119.772494 180 4424ft 0kts

Navigation Log

Ident Type
Flight plan parsing failed, navigation log unavailable